createdAt,value
2023-05-19T00:01:04.855Z,97263.81
2023-05-19T00:03:31.399Z,97267.56
2023-05-19T00:05:58.149Z,97265.03
2023-05-19T00:08:24.699Z,97271.47
2023-05-19T00:10:51.340Z,97265.50
2023-05-19T00:13:17.892Z,97274.81
2023-05-19T00:15:44.571Z,97263.13
2023-05-19T00:18:11.283Z,97263.63
2023-05-19T00:20:37.914Z,97272.56
2023-05-19T00:23:04.519Z,97263.63
2023-05-19T00:25:31.074Z,97258.56
2023-05-19T00:27:57.637Z,97255.41
2023-05-19T00:30:24.184Z,97257.78
2023-05-19T00:32:50.860Z,97252.75
2023-05-19T00:35:17.520Z,97248.78
2023-05-19T00:37:44.150Z,97247.38
2023-05-19T00:40:10.679Z,97244.09
2023-05-19T00:42:37.371Z,97244.09
2023-05-19T00:45:04.034Z,97251.16
2023-05-19T00:47:30.540Z,97240.94
2023-05-19T00:49:57.150Z,97242.63
2023-05-19T00:52:23.752Z,97251.34
2023-05-19T00:54:50.350Z,97242.22
2023-05-19T00:57:16.881Z,97247.88
2023-05-19T00:59:43.410Z,97252.25
2023-05-19T01:02:10.010Z,97242.22
2023-05-19T01:04:36.537Z,97238.75
2023-05-19T01:07:03.071Z,97240.94
2023-05-19T01:09:29.663Z,97241.91
2023-05-19T01:11:56.237Z,97237.63
2023-05-19T01:14:22.805Z,97239.84
2023-05-19T01:16:49.463Z,97242.50
2023-05-19T01:19:16.176Z,97236.97
2023-05-19T01:21:42.761Z,97234.66
2023-05-19T01:24:09.326Z,97237.47
2023-05-19T01:26:35.923Z,97236.69
2023-05-19T01:29:03.510Z,97244.09
2023-05-19T01:31:30.052Z,97241.91
2023-05-19T01:33:56.634Z,97239.22
2023-05-19T01:36:23.250Z,97239.22
2023-05-19T01:38:49.833Z,97239.03
2023-05-19T01:41:16.425Z,97237.03
2023-05-19T01:43:42.958Z,97246.47
2023-05-19T01:46:09.645Z,97249.09
2023-05-19T01:48:36.279Z,97252.75
2023-05-19T01:51:02.845Z,97247.38
2023-05-19T01:53:29.503Z,97243.13
2023-05-19T01:55:56.097Z,97243.75
2023-05-19T01:58:22.550Z,97238.38
2023-05-19T02:00:49.191Z,97242.94
2023-05-19T02:03:15.711Z,97236.69
2023-05-19T02:05:42.232Z,97240.28
2023-05-19T02:08:08.761Z,97236.00
2023-05-19T02:10:35.356Z,97241.84
2023-05-19T02:13:01.855Z,97235.09
2023-05-19T02:15:28.427Z,97231.94
2023-05-19T02:17:55.052Z,97237.09
2023-05-19T02:20:21.643Z,97230.03
2023-05-19T02:22:48.206Z,97227.38
2023-05-19T02:25:14.776Z,97234.75
2023-05-19T02:27:41.352Z,97236.31
2023-05-19T02:30:07.955Z,97244.84
2023-05-19T02:32:34.521Z,97239.31
2023-05-19T02:35:01.158Z,97234.59
2023-05-19T02:37:27.703Z,97236.00
2023-05-19T02:39:54.279Z,97241.66
2023-05-19T02:42:20.876Z,97231.44
2023-05-19T02:44:47.445Z,97233.03
2023-05-19T02:47:14.061Z,97238.69
2023-05-19T02:49:40.731Z,97228.16
2023-05-19T02:52:07.257Z,97231.44
2023-05-19T02:54:33.803Z,97231.28
2023-05-19T02:57:00.381Z,97225.00
2023-05-19T02:59:26.967Z,97220.44
2023-05-19T03:01:53.534Z,97218.25
2023-05-19T03:04:20.045Z,97218.06
2023-05-19T03:06:46.560Z,97220.56
2023-05-19T03:09:13.089Z,97224.06
2023-05-19T03:11:39.734Z,97221.22
2023-05-19T03:14:06.300Z,97226.88
2023-05-19T03:16:32.835Z,97218.84
2023-05-19T03:18:59.490Z,97213.81
2023-05-19T03:21:26.109Z,97217.28
2023-05-19T03:23:52.654Z,97210.66
2023-05-19T03:26:19.160Z,97210.81
2023-05-19T03:28:45.709Z,97200.56
2023-05-19T03:31:12.253Z,97203.59
2023-05-19T03:33:39.027Z,97202.31
2023-05-19T03:36:05.632Z,97202.31
2023-05-19T03:38:32.139Z,97201.81
2023-05-19T03:40:58.790Z,97199.00
2023-05-19T03:43:25.302Z,97208.94
2023-05-19T03:45:51.822Z,97204.69
2023-05-19T03:48:21.099Z,97207.84
2023-05-19T03:50:47.932Z,97203.72
2023-05-19T03:53:14.535Z,97212.88
2023-05-19T03:55:41.176Z,97224.38
2023-05-19T03:58:07.713Z,97223.25
2023-05-19T04:00:34.471Z,97223.91
2023-05-19T04:03:01.533Z,97222.94
2023-05-19T04:05:28.252Z,97221.34
2023-05-19T04:07:54.977Z,97230.47
2023-05-19T04:10:21.563Z,97232.03
2023-05-19T04:12:48.147Z,97230.78
2023-05-19T04:15:14.675Z,97238.97
2023-05-19T04:17:41.206Z,97240.38
2023-05-19T04:20:07.780Z,97240.56
2023-05-19T04:22:34.364Z,97240.56
2023-05-19T04:25:00.887Z,97241.97
2023-05-19T04:27:27.423Z,97233.94
2023-05-19T04:29:53.953Z,97241.16
2023-05-19T04:32:20.526Z,97237.25
2023-05-19T04:34:47.110Z,97248.25
2023-05-19T04:37:13.635Z,97232.34
2023-05-19T04:39:40.184Z,97248.59
2023-05-19T04:42:06.713Z,97249.03
2023-05-19T04:44:33.305Z,97239.13
2023-05-19T04:46:59.884Z,97247.94
2023-05-19T04:49:26.442Z,97241.81
2023-05-19T04:51:55.593Z,97251.09
2023-05-19T04:54:22.501Z,97248.16
2023-05-19T04:56:49.017Z,97253.97
2023-05-19T04:59:15.559Z,97254.81
2023-05-19T05:01:42.152Z,97255.31
2023-05-19T05:04:08.711Z,97247.47
2023-05-19T05:06:35.390Z,97249.25
2023-05-19T05:09:01.975Z,97252.22
2023-05-19T05:11:28.588Z,97248.44
2023-05-19T05:13:55.183Z,97248.69
2023-05-19T05:16:21.726Z,97249.00
2023-05-19T05:18:48.426Z,97248.22
2023-05-19T05:21:14.979Z,97240.66
2023-05-19T05:23:44.251Z,97241.28
2023-05-19T05:26:13.849Z,97243.06
2023-05-19T05:28:40.431Z,97238.78
2023-05-19T05:31:07.097Z,97244.16
2023-05-19T05:33:33.724Z,97244.94
2023-05-19T05:36:00.307Z,97244.00
2023-05-19T05:38:26.838Z,97245.47
2023-05-19T05:40:53.362Z,97240.88
2023-05-19T05:43:19.880Z,97235.38
2023-05-19T05:45:46.396Z,97243.22
2023-05-19T05:48:12.986Z,97243.41
2023-05-19T05:50:39.534Z,97233.34
2023-05-19T05:53:06.008Z,97238.03
2023-05-19T05:55:32.588Z,97238.38
2023-05-19T05:57:59.247Z,97236.63
2023-05-19T06:00:25.812Z,97237.25
2023-05-19T06:02:52.454Z,97244.50
2023-05-19T06:05:19.082Z,97241.66
2023-05-19T06:07:45.584Z,97238.47
2023-05-19T06:10:12.039Z,97238.03
2023-05-19T06:12:38.591Z,97233.97
2023-05-19T06:15:05.189Z,97233.31
2023-05-19T06:17:31.789Z,97228.28
2023-05-19T06:19:58.292Z,97221.50
2023-05-19T06:22:24.745Z,97235.50
2023-05-19T06:24:51.182Z,97233.91
2023-05-19T06:27:17.666Z,97228.78
2023-05-19T06:29:44.164Z,97233.81
2023-05-19T06:32:10.611Z,97227.66
2023-05-19T06:34:40.039Z,97222.31
2023-05-19T06:37:06.595Z,97220.72
2023-05-19T06:39:33.127Z,97228.47
2023-05-19T06:41:59.694Z,97218.09
2023-05-19T06:44:26.190Z,97221.88
2023-05-19T06:46:52.814Z,97221.88
2023-05-19T06:49:19.372Z,97212.25
2023-05-19T06:51:45.818Z,97223.91
2023-05-19T06:54:12.347Z,97221.56
2023-05-19T06:56:38.893Z,97216.81
2023-05-19T06:59:05.519Z,97214.63
2023-05-19T07:01:32.116Z,97210.81
2023-05-19T07:03:58.770Z,97205.63
2023-05-19T07:06:25.309Z,97218.22
2023-05-19T07:08:51.827Z,97212.56
2023-05-19T07:11:22.113Z,97214.13
2023-05-19T07:13:48.637Z,97207.69
2023-05-19T07:16:15.258Z,97210.84
2023-05-19T07:18:41.818Z,97210.19
2023-05-19T07:21:08.469Z,97209.88
2023-05-19T07:23:34.980Z,97211.31
2023-05-19T07:26:01.446Z,97214.00
2023-05-19T07:28:27.967Z,97211.75
2023-05-19T07:30:54.525Z,97215.09
2023-05-19T07:33:21.055Z,97211.16
2023-05-19T07:35:47.625Z,97213.69
2023-05-19T07:38:14.182Z,97218.28
2023-05-19T07:40:40.762Z,97210.03
2023-05-19T07:43:07.379Z,97187.69
2023-05-19T07:45:34.057Z,97199.97
2023-05-19T07:48:01.549Z,97198.19
2023-05-19T07:50:28.078Z,97195.88
2023-05-19T07:52:54.576Z,97190.66
2023-05-19T07:55:21.125Z,97193.75
2023-05-19T07:57:47.711Z,97188.06
2023-05-19T08:00:14.285Z,97184.25
2023-05-19T08:02:40.860Z,97186.63
2023-05-19T08:05:07.470Z,97192.03
2023-05-19T08:07:33.963Z,97189.84
2023-05-19T08:10:00.698Z,97188.88
2023-05-19T08:12:27.296Z,97182.28
2023-05-19T08:14:53.816Z,97188.38
2023-05-19T08:17:20.320Z,97189.69
2023-05-19T08:19:46.885Z,97187.03
2023-05-19T08:22:13.377Z,97185.25
2023-05-19T08:24:39.929Z,97182.72
2023-05-19T08:27:06.465Z,97192.59
2023-05-19T08:29:32.920Z,97186.13
2023-05-19T08:31:59.492Z,97181.44
2023-05-19T08:34:26.106Z,97189.78
2023-05-19T08:36:52.644Z,97176.63
2023-05-19T08:39:19.187Z,97181.47
2023-05-19T08:41:45.750Z,97182.47
2023-05-19T08:44:12.295Z,97169.59
2023-05-19T08:46:38.914Z,97172.38
2023-05-19T08:49:05.442Z,97175.81
2023-05-19T08:51:32.001Z,97176.00
2023-05-19T08:53:58.485Z,97183.72
2023-05-19T08:56:24.980Z,97177.56
2023-05-19T08:58:51.450Z,97168.28
2023-05-19T09:01:20.855Z,97170.00
2023-05-19T09:03:47.569Z,97169.56
2023-05-19T09:06:14.196Z,97168.78
2023-05-19T09:08:40.685Z,97162.94
2023-05-19T09:11:07.179Z,97164.47
2023-05-19T09:13:33.731Z,97156.88
2023-05-19T09:16:00.364Z,97148.09
2023-05-19T09:18:26.939Z,97140.69
2023-05-19T09:20:53.459Z,97140.56
2023-05-19T09:23:19.952Z,97135.88
2023-05-19T09:25:46.492Z,97136.69
2023-05-19T09:28:13.069Z,97131.06
2023-05-19T09:30:39.621Z,97123.97
2023-05-19T09:33:08.873Z,97127.38
2023-05-19T09:35:35.626Z,97125.53
2023-05-19T09:38:02.198Z,97121.91
2023-05-19T09:40:28.772Z,97123.47
2023-05-19T09:42:55.264Z,97128.13
2023-05-19T09:45:21.793Z,97123.50
2023-05-19T09:47:48.358Z,97118.66
2023-05-19T09:50:15.002Z,97123.19
2023-05-19T09:52:41.511Z,97128.66
2023-05-19T09:55:08.053Z,97125.47
2023-05-19T09:57:34.553Z,97119.06
2023-05-19T10:00:01.072Z,97119.47
2023-05-19T10:02:27.596Z,97119.63
2023-05-19T10:04:54.167Z,97111.06
2023-05-19T10:07:20.771Z,97119.59
2023-05-19T10:09:47.301Z,97104.16
2023-05-19T10:12:13.822Z,97114.19
2023-05-19T10:14:40.372Z,97115.03
2023-05-19T10:17:06.898Z,97122.19
2023-05-19T10:19:33.513Z,97118.13
2023-05-19T10:22:00.120Z,97113.81
2023-05-19T10:24:26.627Z,97109.25
2023-05-19T10:26:53.180Z,97105.53
2023-05-19T10:29:19.790Z,97109.00
2023-05-19T10:31:46.414Z,97112.97
2023-05-19T10:34:12.956Z,97111.41
2023-05-19T10:36:39.527Z,97117.38
2023-05-19T10:39:06.081Z,97111.22
2023-05-19T10:41:32.577Z,97107.91
2023-05-19T10:44:02.548Z,97102.09
2023-05-19T10:46:29.134Z,97104.75
2023-05-19T10:48:55.694Z,97102.28
2023-05-19T10:51:22.187Z,97096.75
2023-05-19T10:53:48.767Z,97099.91
2023-05-19T10:56:15.344Z,97100.34
2023-05-19T10:58:41.905Z,97092.66
2023-05-19T11:01:08.493Z,97094.53
2023-05-19T11:03:35.021Z,97085.69
2023-05-19T11:06:01.556Z,97088.69
2023-05-19T11:08:28.147Z,97083.16
2023-05-19T11:10:54.653Z,97084.88
2023-05-19T11:13:26.140Z,97078.44
2023-05-19T11:15:52.715Z,97081.22
2023-05-19T11:18:19.247Z,97080.28
2023-05-19T11:20:45.804Z,97086.63
2023-05-19T11:23:12.307Z,97076.50
2023-05-19T11:25:38.818Z,97081.53
2023-05-19T11:28:05.412Z,97078.38
2023-05-19T11:30:31.909Z,97071.94
2023-05-19T11:32:58.605Z,97078.69
2023-05-19T11:35:25.148Z,97070.34
2023-05-19T11:37:51.649Z,97078.22
2023-05-19T11:40:18.229Z,97068.59
2023-05-19T11:42:44.717Z,97069.19
2023-05-19T11:45:11.259Z,97062.78
2023-05-19T11:47:50.737Z,97063.19
2023-05-19T11:50:18.498Z,97073.75
2023-05-19T11:52:45.027Z,97055.44
2023-05-19T11:55:11.569Z,97059.38
2023-05-19T11:57:38.100Z,97061.75
2023-05-19T12:00:04.634Z,97055.91
2023-05-19T12:02:31.299Z,97050.69
2023-05-19T12:04:57.940Z,97053.09
2023-05-19T12:07:24.530Z,97047.53
2023-05-19T12:09:51.014Z,97039.16
2023-05-19T12:12:17.479Z,97035.38
2023-05-19T12:14:44.029Z,97038.72
2023-05-19T12:17:10.593Z,97046.13
2023-05-19T12:19:37.198Z,97036.72
2023-05-19T12:22:04.168Z,97043.16
2023-05-19T12:24:30.702Z,97047.78
2023-05-19T12:26:57.237Z,97046.81
2023-05-19T12:29:23.918Z,97037.66
2023-05-19T12:31:50.526Z,97034.19
2023-05-19T12:34:17.096Z,97027.06
2023-05-19T12:36:43.557Z,97039.03
2023-05-19T12:39:10.017Z,97039.69
2023-05-19T12:41:36.544Z,97034.78
2023-05-19T12:44:03.034Z,97035.06
2023-05-19T12:46:29.553Z,97040.94
2023-05-19T12:48:56.144Z,97041.84
2023-05-19T12:51:22.630Z,97035.78
2023-05-19T12:53:49.751Z,97035.53
2023-05-19T12:56:19.262Z,97033.97
2023-05-19T12:58:45.817Z,97027.16
2023-05-19T13:01:12.575Z,97028.13
2023-05-19T13:03:39.382Z,97038.22
2023-05-19T13:06:05.992Z,97031.84
2023-05-19T13:08:32.527Z,97027.72
2023-05-19T13:10:59.097Z,97036.88
2023-05-19T13:13:25.575Z,97022.03
2023-05-19T13:15:52.040Z,97022.63
2023-05-19T13:18:18.615Z,97019.44
2023-05-19T13:20:45.167Z,97011.63
2023-05-19T13:23:11.714Z,97009.72
2023-05-19T13:25:38.217Z,97013.84
2023-05-19T13:28:04.739Z,97021.91
2023-05-19T13:30:31.194Z,97020.78
2023-05-19T13:32:57.798Z,97013.03
2023-05-19T13:35:24.403Z,97020.00
2023-05-19T13:37:50.988Z,97034.06
2023-05-19T13:40:17.443Z,97022.03
2023-05-19T13:42:44.052Z,97034.53
2023-05-19T13:45:10.589Z,97021.03
2023-05-19T13:47:37.084Z,97018.53
2023-05-19T13:50:03.545Z,97020.53
2023-05-19T13:52:30.634Z,97018.31
2023-05-19T13:54:57.192Z,97026.75
2023-05-19T13:57:23.650Z,97021.09
2023-05-19T14:00:01.786Z,97022.56
2023-05-19T14:02:30.472Z,97021.44
2023-05-19T14:04:57.340Z,97012.53
2023-05-19T14:07:23.897Z,97014.22
2023-05-19T14:09:50.448Z,97011.94
2023-05-19T14:12:17.129Z,97010.75
2023-05-19T14:14:43.712Z,97009.03
2023-05-19T14:17:10.184Z,97015.66
2023-05-19T14:19:36.702Z,97013.97
2023-05-19T14:22:03.161Z,97017.56
2023-05-19T14:24:29.686Z,97019.16
2023-05-19T14:26:56.187Z,97017.09
2023-05-19T14:29:22.842Z,97013.63
2023-05-19T14:31:49.438Z,97011.59
2023-05-19T14:34:16.047Z,96995.72
2023-05-19T14:36:42.548Z,97006.31
2023-05-19T14:39:09.071Z,97019.97
2023-05-19T14:41:35.583Z,97009.56
2023-05-19T14:44:02.083Z,97021.63
2023-05-19T14:46:28.690Z,97017.25
2023-05-19T14:48:55.387Z,97013.19
2023-05-19T14:51:21.906Z,97008.00
2023-05-19T14:53:48.458Z,97019.97
2023-05-19T14:56:15.060Z,97010.34
2023-05-19T14:58:41.607Z,97009.41
2023-05-19T15:01:08.212Z,97018.25
2023-05-19T15:03:34.802Z,97008.47
2023-05-19T15:06:01.390Z,97020.41
2023-05-19T15:08:27.979Z,97016.75
2023-05-19T15:10:54.538Z,97016.75
2023-05-19T15:13:21.073Z,97018.53
2023-05-19T15:15:47.657Z,97008.81
2023-05-19T15:18:14.252Z,97014.38
2023-05-19T15:20:40.860Z,97001.94
2023-05-19T15:23:07.470Z,97008.91
2023-05-19T15:25:34.042Z,97003.09
2023-05-19T15:28:00.562Z,97005.63
2023-05-19T15:30:27.045Z,97007.19
2023-05-19T15:32:55.223Z,97001.50
2023-05-19T15:35:22.024Z,97006.72
2023-05-19T15:37:48.524Z,97010.19
2023-05-19T15:40:15.056Z,97015.00
2023-05-19T15:42:41.614Z,96997.50
2023-05-19T15:45:08.259Z,97007.44
2023-05-19T15:47:34.970Z,97008.88
2023-05-19T15:50:01.657Z,97009.53
2023-05-19T15:52:28.230Z,97006.53
2023-05-19T15:54:57.815Z,97022.50
2023-05-19T15:57:24.305Z,97024.72
2023-05-19T15:59:50.866Z,97028.31
2023-05-19T16:02:18.237Z,97018.91
2023-05-19T16:04:44.761Z,97013.84
2023-05-19T16:07:11.428Z,97012.53
2023-05-19T16:09:38.061Z,97003.59
2023-05-19T16:12:04.650Z,97011.59
2023-05-19T16:14:31.292Z,97014.13
2023-05-19T16:16:57.883Z,97013.00
2023-05-19T16:19:24.416Z,97008.91
2023-05-19T16:21:50.930Z,97001.03
2023-05-19T16:24:17.463Z,97007.31
2023-05-19T16:26:43.955Z,97001.81
2023-05-19T16:29:10.495Z,97006.13
2023-05-19T16:31:37.103Z,97002.03
2023-05-19T16:34:03.700Z,96999.81
2023-05-19T16:36:30.270Z,96995.41
2023-05-19T16:38:56.811Z,97000.91
2023-05-19T16:41:23.306Z,96992.06
2023-05-19T16:43:49.834Z,96997.75
2023-05-19T16:46:16.412Z,97000.47
2023-05-19T16:48:43.076Z,96996.66
2023-05-19T16:51:09.657Z,96995.41
2023-05-19T16:53:36.243Z,96990.38
2023-05-19T16:56:02.834Z,96997.69
2023-05-19T16:58:30.847Z,96996.69
2023-05-19T17:00:57.648Z,96989.28
2023-05-19T17:03:24.307Z,96999.50
2023-05-19T17:05:50.999Z,96993.69
2023-05-19T17:08:17.561Z,96994.78
2023-05-19T17:10:44.062Z,96987.81
2023-05-19T17:13:10.593Z,96990.50
2023-05-19T17:15:37.159Z,96990.28
2023-05-19T17:18:03.744Z,96998.31
2023-05-19T17:20:30.285Z,96995.19
2023-05-19T17:22:56.773Z,96998.97
2023-05-19T17:25:26.148Z,96998.66
2023-05-19T17:27:53.008Z,97006.00
2023-05-19T17:30:19.625Z,97006.47
2023-05-19T17:32:46.337Z,97002.91
2023-05-19T17:35:12.986Z,97012.28
2023-05-19T17:37:39.540Z,97009.00
2023-05-19T17:40:06.092Z,97003.84
2023-05-19T17:42:33.089Z,97008.56
2023-05-19T17:44:59.663Z,97001.16
2023-05-19T17:47:26.285Z,96998.31
2023-05-19T17:49:52.830Z,96998.31
2023-05-19T17:52:19.396Z,96996.13
2023-05-19T17:54:45.937Z,96997.84
2023-05-19T17:57:12.503Z,97000.38
2023-05-19T17:59:38.975Z,96994.72
2023-05-19T18:02:05.590Z,96984.50
2023-05-19T18:04:32.156Z,96994.13
2023-05-19T18:06:58.731Z,96996.97
2023-05-19T18:09:27.918Z,96995.88
2023-05-19T18:11:55.372Z,97001.53
2023-05-19T18:14:22.039Z,96999.97
2023-05-19T18:16:48.743Z,97000.13
2023-05-19T18:19:15.375Z,97003.28
2023-05-19T18:21:41.991Z,97001.22
2023-05-19T18:24:08.550Z,97001.38
2023-05-19T18:26:35.063Z,97014.00
2023-05-19T18:29:01.672Z,96998.72
2023-05-19T18:31:28.308Z,97000.44
2023-05-19T18:33:54.846Z,97003.13
2023-05-19T18:36:21.610Z,97000.75
2023-05-19T18:38:48.188Z,96994.94
2023-05-19T18:41:14.816Z,96993.34
2023-05-19T18:43:41.334Z,96997.13
2023-05-19T18:46:07.927Z,96998.38
2023-05-19T18:48:34.424Z,97006.28
2023-05-19T18:51:00.995Z,96996.81
2023-05-19T18:53:27.500Z,97001.06
2023-05-19T18:55:54.029Z,97001.69
2023-05-19T18:58:20.555Z,96997.91
2023-05-19T19:00:47.119Z,97001.38
2023-05-19T19:03:13.712Z,96994.28
2023-05-19T19:05:40.296Z,97004.22
2023-05-19T19:08:06.860Z,96999.03
2023-05-19T19:10:33.683Z,96994.44
2023-05-19T19:13:00.369Z,97000.28
2023-05-19T19:15:26.889Z,97003.44
2023-05-19T19:17:53.565Z,96996.34
2023-05-19T19:20:20.033Z,97004.69
2023-05-19T19:22:46.608Z,97014.47
2023-05-19T19:25:13.182Z,97011.16
2023-05-19T19:27:39.718Z,97014.78
2023-05-19T19:30:06.264Z,97022.19
2023-05-19T19:32:32.825Z,97013.19
2023-05-19T19:34:59.460Z,97015.41
2023-05-19T19:37:26.001Z,97016.03
2023-05-19T19:39:52.562Z,97020.13
2023-05-19T19:42:19.136Z,97021.84
2023-05-19T19:44:45.754Z,97019.97
2023-05-19T19:47:12.298Z,97017.91
2023-05-19T19:49:38.839Z,97023.75
2023-05-19T19:52:05.432Z,97027.22
2023-05-19T19:54:31.953Z,97028.16
2023-05-19T19:56:58.466Z,97022.34
2023-05-19T19:59:25.278Z,97026.28
2023-05-19T20:01:52.814Z,97028.78
2023-05-19T20:04:19.559Z,97022.00
2023-05-19T20:06:46.119Z,97023.13
2023-05-19T20:09:12.625Z,97025.47
2023-05-19T20:14:05.659Z,97023.59
2023-05-19T20:16:32.291Z,97018.09
2023-05-19T20:18:58.952Z,97013.97
2023-05-19T20:21:25.481Z,97017.44
2023-05-19T20:23:52.052Z,97014.94
2023-05-19T20:26:18.537Z,97014.94
2023-05-19T20:28:45.136Z,97016.81
2023-05-19T20:31:11.787Z,97019.66
2023-05-19T20:33:38.404Z,97013.84
2023-05-19T20:36:05.063Z,97018.09
2023-05-19T20:38:31.662Z,97018.41
2023-05-19T20:40:58.302Z,97013.19
2023-05-19T20:43:24.863Z,97021.06
2023-05-19T20:45:51.581Z,97013.81
2023-05-19T20:48:18.283Z,97010.66
2023-05-19T20:50:45.003Z,97014.31
2023-05-19T20:53:11.592Z,97019.03
2023-05-19T20:55:38.112Z,97019.34
2023-05-19T20:58:04.764Z,97025.00
2023-05-19T21:00:31.316Z,97020.28
2023-05-19T21:02:58.135Z,97025.50
2023-05-19T21:05:24.785Z,97024.84
2023-05-19T21:07:51.381Z,97021.22
2023-05-19T21:10:18.060Z,97019.03
2023-05-19T21:12:44.702Z,97022.97
2023-05-19T21:15:11.222Z,97012.25
2023-05-19T21:17:37.864Z,97021.09
2023-05-19T21:20:04.610Z,97014.78
2023-05-19T21:22:31.217Z,97017.78
2023-05-19T21:24:57.780Z,97010.03
2023-05-19T21:27:24.348Z,97011.16
2023-05-19T21:29:50.980Z,97012.41
2023-05-19T21:32:17.535Z,97012.09
2023-05-19T21:34:44.128Z,97007.38
2023-05-19T21:37:10.740Z,97007.06
2023-05-19T21:39:37.288Z,97004.84
2023-05-19T21:42:03.930Z,97009.41
2023-05-19T21:44:30.567Z,96999.00
2023-05-19T21:46:57.220Z,97005.16
2023-05-19T21:49:23.986Z,97004.22
2023-05-19T21:51:50.572Z,97001.84
2023-05-19T21:54:17.179Z,96995.88
2023-05-19T21:56:43.718Z,96993.97
2023-05-19T21:59:10.271Z,96990.50
2023-05-19T22:01:36.852Z,96985.94
2023-05-19T22:04:03.560Z,96988.78
2023-05-19T22:06:30.168Z,96987.84
2023-05-19T22:08:56.757Z,96983.91
2023-05-19T22:11:23.308Z,96984.84
2023-05-19T22:13:49.934Z,96981.22
2023-05-19T22:16:16.663Z,96988.16
2023-05-19T22:18:43.270Z,96990.97
2023-05-19T22:21:09.812Z,96987.97
2023-05-19T22:23:36.374Z,96995.09
2023-05-19T22:26:02.946Z,96988.16
2023-05-19T22:28:29.515Z,96989.25
2023-05-19T22:30:56.141Z,96994.44
2023-05-19T22:33:22.769Z,96987.97
2023-05-19T22:35:49.411Z,96990.50
2023-05-19T22:38:16.030Z,96996.19
2023-05-19T22:40:42.500Z,96992.56
2023-05-19T22:43:11.831Z,96995.06
2023-05-19T22:45:38.675Z,96990.66
2023-05-19T22:48:05.527Z,96989.25
2023-05-19T22:50:32.155Z,96985.31
2023-05-19T22:52:58.783Z,96990.84
2023-05-19T22:55:25.327Z,96987.38
2023-05-19T22:57:51.915Z,96985.97
2023-05-19T23:00:18.444Z,96979.16
2023-05-19T23:02:45.095Z,96981.38
2023-05-19T23:05:11.633Z,96978.38
2023-05-19T23:07:38.285Z,96977.94
2023-05-19T23:10:04.933Z,96978.69
2023-05-19T23:12:31.551Z,96973.69
2023-05-19T23:14:58.082Z,96975.38
2023-05-19T23:17:24.745Z,96979.47
2023-05-19T23:19:51.327Z,96970.34
2023-05-19T23:22:17.859Z,96981.06
2023-05-19T23:24:44.423Z,96975.69
2023-05-19T23:27:10.944Z,96969.56
2023-05-19T23:29:37.519Z,96971.13
2023-05-19T23:32:04.101Z,96965.00
2023-05-19T23:34:30.697Z,96969.56
2023-05-19T23:36:57.312Z,96979.34
2023-05-19T23:39:23.844Z,96976.81
2023-05-19T23:41:50.362Z,96966.28
2023-05-19T23:44:16.909Z,96975.41
2023-05-19T23:46:43.670Z,96961.53
2023-05-19T23:49:10.289Z,96963.91
2023-05-19T23:51:36.866Z,96960.44
2023-05-19T23:54:03.367Z,96965.66
2023-05-19T23:56:29.960Z,96971.91
2023-05-19T23:58:56.568Z,96969.44
